Time;durP1;ratioP1;P1;durP2;ratioP2;P2;SDS_P1;SDS_P2;PMS_P1;PMS_P2;Temp;Humidity;BMP_temperature;BMP_pressure;BME280_temperature;BME280_humidity;BME280_pressure;Samples;Min_cycle;Max_cycle;Signal;HPM_P1;HPM_P2
2021/07/27 00:01:12;;;;;;;10.60;9.50;;;20.10;99.90;;;;;;5052395;28;20238;-80
2021/07/27 00:03:38;;;;;;;13.38;10.40;;;20.10;99.90;;;;;;5052648;28;20159;-80
2021/07/27 00:06:04;;;;;;;14.13;9.48;;;19.90;99.90;;;;;;5034695;28;20190;-80
2021/07/27 00:08:31;;;;;;;13.70;10.07;;;19.90;99.90;;;;;;5052741;28;20211;-80
2021/07/27 00:10:58;;;;;;;11.00;9.90;;;19.60;99.90;;;;;;5034851;28;20336;-80
2021/07/27 00:13:23;;;;;;;15.95;9.50;;;19.50;99.90;;;;;;5052494;28;20511;-80
2021/07/27 00:15:49;;;;;;;14.07;10.35;;;19.50;99.90;;;;;;5034512;28;20194;-80
2021/07/27 00:18:15;;;;;;;12.23;10.13;;;19.50;99.90;;;;;;5034452;28;20175;-80
2021/07/27 00:20:40;;;;;;;12.50;10.38;;;19.50;99.90;;;;;;5052247;28;20198;-80
2021/07/27 00:23:06;;;;;;;13.90;11.05;;;19.60;99.90;;;;;;5052492;28;20171;-80
2021/07/27 00:25:32;;;;;;;14.80;10.75;;;19.50;99.90;;;;;;5052304;28;20670;-80
2021/07/27 00:27:57;;;;;;;14.60;10.25;;;19.40;99.90;;;;;;5052610;28;20195;-80
2021/07/27 00:30:23;;;;;;;13.95;10.57;;;19.40;99.90;;;;;;5035320;28;20174;-80
2021/07/27 00:32:49;;;;;;;15.30;10.88;;;19.50;99.90;;;;;;5052432;28;20171;-79
2021/07/27 00:35:15;;;;;;;20.83;11.30;;;19.50;99.90;;;;;;5034459;28;20663;-80
2021/07/27 00:37:46;;;;;;;22.65;12.60;;;19.30;99.90;;;;;;5034519;28;20613;-80
2021/07/27 00:40:13;;;;;;;16.90;11.23;;;19.20;99.90;;;;;;5034782;28;20590;-80
2021/07/27 00:42:48;;;;;;;18.17;12.63;;;19.10;99.90;;;;;;5052144;28;20171;-80
2021/07/27 00:45:15;;;;;;;13.23;11.80;;;19.20;99.90;;;;;;5038292;28;20182;-80
2021/07/27 00:47:41;;;;;;;20.40;13.25;;;19.30;99.90;;;;;;5055993;28;20175;-80
2021/07/27 00:50:09;;;;;;;16.73;12.82;;;19.20;99.90;;;;;;5055998;28;20179;-80
2021/07/27 00:52:37;;;;;;;22.92;12.40;;;19.00;99.90;;;;;;5055511;28;20175;-80
2021/07/27 00:55:04;;;;;;;20.60;13.70;;;19.00;99.90;;;;;;5055775;28;20183;-80
2021/07/27 00:57:31;;;;;;;17.70;13.02;;;19.00;99.90;;;;;;5037566;28;20266;-80
2021/07/27 00:59:57;;;;;;;21.90;13.90;;;19.00;99.90;;;;;;5037462;28;20174;-80
2021/07/27 01:02:23;;;;;;;20.95;13.13;;;19.20;99.90;;;;;;5055358;28;20214;-80
2021/07/27 01:04:49;;;;;;;26.30;14.70;;;19.20;99.90;;;;;;5055557;28;20238;-80
2021/07/27 01:07:14;;;;;;;30.92;14.23;;;19.00;99.90;;;;;;5037651;28;20182;-79
2021/07/27 01:09:41;;;;;;;22.08;13.80;;;19.00;99.90;;;;;;5037436;28;20163;-80
2021/07/27 01:12:07;;;;;;;25.65;14.30;;;18.90;99.90;;;;;;5037306;28;20590;-79
2021/07/27 01:14:32;;;;;;;23.88;14.88;;;18.90;99.90;;;;;;5021016;28;20552;-80
2021/07/27 01:16:58;;;;;;;20.85;14.68;;;19.00;99.90;;;;;;5037455;28;20167;-80
2021/07/27 01:43:40;;;;;;;25.55;14.65;;;18.90;99.90;;;;;;5055092;28;20163;-80
2021/07/27 01:46:07;;;;;;;26.83;15.65;;;18.90;99.90;;;;;;5054718;28;20191;-81
2021/07/27 01:48:32;;;;;;;21.10;13.35;;;18.80;99.90;;;;;;5036783;28;20594;-80
2021/07/27 01:51:04;;;;;;;20.65;14.68;;;18.70;99.90;;;;;;5036828;28;20265;-80
2021/07/27 01:53:35;;;;;;;21.75;14.73;;;18.90;99.90;;;;;;5036572;28;20681;-81
2021/07/27 01:56:01;;;;;;;20.55;13.68;;;18.80;99.90;;;;;;5036628;28;20218;-80
2021/07/27 01:58:26;;;;;;;23.27;14.85;;;18.90;99.90;;;;;;5054855;28;20170;-80
2021/07/27 02:00:53;;;;;;;21.42;14.25;;;19.00;99.90;;;;;;5036439;28;20202;-80
2021/07/27 02:03:18;;;;;;;24.42;15.07;;;19.10;99.90;;;;;;5054610;28;20616;-80
2021/07/27 02:05:45;;;;;;;24.27;16.02;;;18.90;99.90;;;;;;5054162;28;20233;-80
2021/07/27 02:08:12;;;;;;;22.67;15.77;;;18.90;99.90;;;;;;5036611;28;20175;-80
2021/07/27 02:10:39;;;;;;;20.52;15.35;;;19.10;99.90;;;;;;5054423;28;20172;-80
2021/07/27 02:13:13;;;;;;;19.75;14.68;;;19.00;99.90;;;;;;5054179;28;20156;-80
2021/07/27 02:15:40;;;;;;;23.48;14.88;;;19.00;99.90;;;;;;5036391;28;20554;-80
2021/07/27 02:18:06;;;;;;;20.23;14.13;;;19.10;99.90;;;;;;5054147;28;20171;-81
2021/07/27 02:20:33;;;;;;;21.77;14.15;;;18.90;99.90;;;;;;5054205;28;20199;-80
2021/07/27 02:22:58;;;;;;;21.77;13.63;;;19.00;99.90;;;;;;5054070;28;20186;-80
2021/07/27 02:25:24;;;;;;;29.50;15.00;;;19.00;99.90;;;;;;5053793;28;20195;-80
2021/07/27 02:27:50;;;;;;;17.45;13.60;;;19.10;99.90;;;;;;5036230;28;20190;-80
2021/07/27 02:30:16;;;;;;;19.65;13.25;;;19.00;99.90;;;;;;5036130;28;20585;-80
2021/07/27 02:32:43;;;;;;;25.10;13.82;;;18.90;99.90;;;;;;5035969;28;20168;-80
2021/07/27 02:35:09;;;;;;;23.88;12.85;;;18.80;99.90;;;;;;5053548;28;20237;-80
2021/07/27 02:37:36;;;;;;;20.52;14.88;;;18.80;99.90;;;;;;5054105;28;20186;-80
2021/07/27 02:40:05;;;;;;;21.98;13.30;;;18.70;99.90;;;;;;5036435;28;20191;-79
2021/07/27 02:42:30;;;;;;;24.08;14.20;;;18.60;99.90;;;;;;5053639;28;20667;-80
2021/07/27 02:44:56;;;;;;;22.30;13.43;;;18.60;99.90;;;;;;5053948;28;20191;-79
2021/07/27 02:47:22;;;;;;;22.13;14.10;;;18.80;99.90;;;;;;5053629;28;20213;-79
2021/07/27 02:49:47;;;;;;;23.08;14.63;;;18.90;99.90;;;;;;5035785;28;20600;-80
2021/07/27 02:52:14;;;;;;;19.67;13.40;;;19.00;99.90;;;;;;5053523;28;20241;-80
2021/07/27 02:54:39;;;;;;;22.55;13.43;;;18.90;99.90;;;;;;5035445;28;20187;-79
2021/07/27 02:57:05;;;;;;;22.42;13.88;;;18.80;99.90;;;;;;5035762;28;20258;-80
2021/07/27 02:59:31;;;;;;;28.05;14.85;;;18.90;99.90;;;;;;5035515;28;20175;-80
2021/07/27 03:01:57;;;;;;;24.63;14.82;;;19.10;99.90;;;;;;5052825;28;20209;-81
2021/07/27 03:04:23;;;;;;;21.17;12.95;;;19.10;99.90;;;;;;5035327;28;20257;-80
2021/07/27 03:06:49;;;;;;;19.90;13.73;;;19.10;99.90;;;;;;5035095;28;20654;-81
2021/07/27 03:09:24;;;;;;;23.38;14.57;;;19.00;99.90;;;;;;5053077;28;20155;-80
2021/07/27 03:11:50;;;;;;;22.52;14.60;;;19.10;99.90;;;;;;5035348;28;20166;-80
2021/07/27 03:14:16;;;;;;;20.42;13.70;;;19.20;99.90;;;;;;5053383;28;20650;-80
2021/07/27 03:16:42;;;;;;;25.00;14.38;;;19.10;99.90;;;;;;5053063;28;20167;-82
2021/07/27 03:19:08;;;;;;;22.45;14.15;;;19.00;99.90;;;;;;5052659;28;20547;-80
2021/07/27 03:21:33;;;;;;;20.13;14.13;;;18.90;99.90;;;;;;5053111;28;20233;-81
2021/07/27 03:23:59;;;;;;;24.55;14.15;;;18.90;99.90;;;;;;5035370;28;20650;-80
2021/07/27 03:26:25;;;;;;;31.80;14.32;;;18.90;99.90;;;;;;5052858;28;20543;-80
2021/07/27 03:28:51;;;;;;;28.95;15.10;;;18.90;99.90;;;;;;5034961;28;20614;-80
2021/07/27 03:31:17;;;;;;;27.55;14.25;;;18.90;99.90;;;;;;5052726;28;20173;-80
2021/07/27 03:33:46;;;;;;;19.92;13.70;;;18.90;99.90;;;;;;5052890;28;20531;-80
2021/07/27 03:36:11;;;;;;;23.92;14.23;;;19.00;99.90;;;;;;5035103;28;20202;-79
2021/07/27 03:38:37;;;;;;;19.40;14.30;;;19.00;99.90;;;;;;5035192;28;20163;-80
2021/07/27 03:41:03;;;;;;;22.88;15.45;;;18.90;99.90;;;;;;5052960;28;20281;-80
2021/07/27 03:43:28;;;;;;;20.83;14.25;;;18.90;99.90;;;;;;5034705;28;20646;-80
2021/07/27 03:45:54;;;;;;;24.10;14.70;;;19.00;99.90;;;;;;5034596;28;20222;-79
2021/07/27 03:48:19;;;;;;;17.05;13.73;;;19.00;99.90;;;;;;5052461;28;20163;-79
2021/07/27 03:50:45;;;;;;;24.75;15.10;;;19.10;99.90;;;;;;5053022;28;20602;-79
2021/07/27 03:53:16;;;;;;;22.85;15.75;;;19.10;99.90;;;;;;5052868;28;20262;-79
2021/07/27 03:55:42;;;;;;;26.95;14.77;;;18.90;99.90;;;;;;5052623;28;20179;-80
2021/07/27 03:58:07;;;;;;;27.88;14.75;;;19.00;99.90;;;;;;5034483;28;20170;-79
2021/07/27 04:00:33;;;;;;;23.70;14.23;;;18.90;99.90;;;;;;5034024;28;20167;-80
2021/07/27 04:03:03;;;;;;;18.02;13.63;;;19.00;99.90;;;;;;5034578;28;20194;-79
2021/07/27 04:05:29;;;;;;;21.13;12.82;;;19.10;99.90;;;;;;5034169;28;20190;-80
2021/07/27 04:07:55;;;;;;;18.70;12.75;;;19.00;99.90;;;;;;5034745;28;20642;-80
2021/07/27 04:10:20;;;;;;;23.20;12.25;;;18.90;99.90;;;;;;5034675;28;20217;-80
2021/07/27 04:12:46;;;;;;;28.02;13.00;;;18.80;99.90;;;;;;5052641;28;20167;-79
2021/07/27 04:15:11;;;;;;;20.33;13.60;;;18.70;99.90;;;;;;5034549;28;20202;-80
2021/07/27 04:17:37;;;;;;;22.73;12.70;;;18.90;99.90;;;;;;5051467;28;20171;-79
2021/07/27 04:20:03;;;;;;;25.38;13.50;;;19.00;99.90;;;;;;5052199;28;20823;-79
2021/07/27 04:22:29;;;;;;;21.25;11.82;;;19.10;99.90;;;;;;5052360;28;20257;-79
2021/07/27 04:24:57;;;;;;;22.50;12.00;;;19.10;99.90;;;;;;5052386;28;20194;-79
2021/07/27 04:27:24;;;;;;;20.40;12.77;;;19.10;99.90;;;;;;5034549;28;20546;-79
2021/07/27 04:29:50;;;;;;;20.88;11.23;;;19.20;99.90;;;;;;5034314;28;20174;-80
2021/07/27 04:32:16;;;;;;;19.00;12.13;;;19.20;99.90;;;;;;5034445;28;20171;-80
2021/07/27 04:34:41;;;;;;;19.58;11.45;;;19.30;99.90;;;;;;5034413;28;20658;-79
2021/07/27 04:37:07;;;;;;;21.52;10.88;;;19.30;99.90;;;;;;5052319;28;20175;-80
2021/07/27 04:39:34;;;;;;;17.05;11.95;;;19.20;99.90;;;;;;5034695;28;20175;-80
2021/07/27 04:42:00;;;;;;;12.63;11.27;;;19.30;99.90;;;;;;5052092;28;20302;-80
2021/07/27 04:44:25;;;;;;;25.33;11.02;;;19.50;99.90;;;;;;5034401;28;20254;-80
2021/07/27 04:46:51;;;;;;;34.60;11.25;;;19.50;99.90;;;;;;5052218;28;20641;-79
2021/07/27 04:49:17;;;;;;;15.52;11.63;;;19.40;99.90;;;;;;5034629;28;20248;-80
2021/07/27 04:51:42;;;;;;;13.13;10.57;;;19.40;99.90;;;;;;5034778;28;20627;-79
2021/07/27 04:54:14;;;;;;;15.85;11.10;;;19.50;99.90;;;;;;5034527;28;20173;-80
2021/07/27 04:56:40;;;;;;;13.27;10.70;;;19.70;99.90;;;;;;5052155;28;20191;-79
2021/07/27 04:59:06;;;;;;;23.98;11.35;;;19.90;99.90;;;;;;5052035;28;20556;-79
2021/07/27 05:01:31;;;;;;;16.70;10.63;;;19.90;99.90;;;;;;5051889;28;20500;-80
2021/07/27 05:03:57;;;;;;;22.70;10.65;;;19.80;99.90;;;;;;5052145;28;20164;-80
2021/07/27 05:06:23;;;;;;;15.00;10.90;;;19.70;99.90;;;;;;5051851;28;20615;-79
2021/07/27 05:08:49;;;;;;;20.35;10.43;;;19.90;99.90;;;;;;5034309;28;20179;-79
2021/07/27 05:11:14;;;;;;;20.45;10.57;;;20.00;99.90;;;;;;5052192;28;20190;-79
2021/07/27 05:13:40;;;;;;;12.73;10.95;;;20.00;99.90;;;;;;5034385;28;20171;-79
2021/07/27 05:16:06;;;;;;;17.38;10.18;;;20.20;99.90;;;;;;5052203;28;20320;-79
2021/07/27 05:18:31;;;;;;;13.57;10.13;;;20.10;99.90;;;;;;5052099;28;20262;-80
2021/07/27 05:20:57;;;;;;;16.60;10.85;;;19.80;99.90;;;;;;5051767;28;20234;-80
2021/07/27 05:23:28;;;;;;;14.20;9.68;;;20.00;99.90;;;;;;5052003;28;20627;-80
2021/07/27 05:25:53;;;;;;;12.05;10.07;;;20.10;99.90;;;;;;5051896;28;20194;-80
2021/07/27 05:28:19;;;;;;;14.57;10.77;;;20.00;99.90;;;;;;5051546;28;20175;-80
2021/07/27 05:30:44;;;;;;;14.07;10.20;;;19.90;99.90;;;;;;5037041;28;20532;-80
2021/07/27 05:33:11;;;;;;;14.60;10.30;;;20.00;99.90;;;;;;5054914;28;20627;-80
2021/07/27 05:35:37;;;;;;;12.70;9.85;;;19.90;99.90;;;;;;5036708;28;20257;-79
2021/07/27 05:38:03;;;;;;;23.75;11.30;;;19.80;99.90;;;;;;5036750;28;20627;-80
2021/07/27 05:40:31;;;;;;;19.00;10.88;;;19.70;99.90;;;;;;5054886;28;20168;-79
2021/07/27 05:42:59;;;;;;;11.55;9.60;;;19.70;99.90;;;;;;5037085;28;20891;-79
2021/07/27 05:45:25;;;;;;;14.02;10.63;;;19.80;99.90;;;;;;5055174;28;20187;-80
2021/07/27 05:47:52;;;;;;;20.58;10.70;;;20.10;99.90;;;;;;5036630;28;20182;-80
2021/07/27 05:50:19;;;;;;;16.67;11.75;;;20.20;99.90;;;;;;5054582;28;20167;-79
2021/07/27 05:52:45;;;;;;;12.35;10.38;;;20.30;99.90;;;;;;5037096;28;20184;-80
2021/07/27 05:55:11;;;;;;;14.45;11.48;;;20.20;99.90;;;;;;5054261;28;20275;-80
2021/07/27 05:57:36;;;;;;;21.20;10.45;;;20.40;99.90;;;;;;5054562;28;20171;-79
2021/07/27 06:00:04;;;;;;;18.02;10.50;;;20.40;99.90;;;;;;5036465;28;20178;-79
2021/07/27 06:02:29;;;;;;;15.02;11.40;;;20.40;99.90;;;;;;5054089;28;20206;-80
2021/07/27 06:04:55;;;;;;;13.65;11.50;;;20.40;99.90;;;;;;5054477;28;20669;-80
2021/07/27 06:07:20;;;;;;;14.73;10.43;;;20.60;99.90;;;;;;5036379;28;20686;-80
2021/07/27 06:09:46;;;;;;;11.90;10.70;;;20.70;99.90;;;;;;5036100;28;20262;-79
2021/07/27 06:12:12;;;;;;;22.85;11.38;;;20.70;99.90;;;;;;5036181;28;20172;-80
2021/07/27 06:14:38;;;;;;;11.85;10.65;;;20.80;99.90;;;;;;5035786;28;20187;-79
2021/07/27 06:17:04;;;;;;;19.10;12.30;;;20.80;99.90;;;;;;5053484;28;20229;-80
2021/07/27 06:19:29;;;;;;;23.77;11.52;;;20.70;99.90;;;;;;5053759;28;20233;-79
2021/07/27 06:21:55;;;;;;;16.08;11.27;;;20.70;99.90;;;;;;5035638;28;20207;-80
2021/07/27 06:24:21;;;;;;;24.17;11.88;;;20.40;99.90;;;;;;5053604;28;20166;-79
2021/07/27 06:26:47;;;;;;;18.98;11.85;;;20.30;99.90;;;;;;5053879;28;20271;-79
2021/07/27 06:29:13;;;;;;;18.92;11.75;;;20.30;99.90;;;;;;5053848;28;20213;-79
2021/07/27 06:31:38;;;;;;;21.42;11.90;;;20.40;99.90;;;;;;5053980;28;20171;-80
2021/07/27 06:34:04;;;;;;;13.90;11.05;;;20.60;99.90;;;;;;5053674;28;20225;-81
2021/07/27 06:36:30;;;;;;;19.73;11.23;;;20.40;99.90;;;;;;5036419;28;20634;-81
2021/07/27 06:38:56;;;;;;;14.73;10.18;;;20.60;99.90;;;;;;5039611;28;20167;-80
2021/07/27 06:41:22;;;;;;;12.73;10.93;;;20.60;99.90;;;;;;5052851;28;20207;-80
2021/07/27 06:43:47;;;;;;;13.50;11.40;;;20.50;99.90;;;;;;5035655;28;20168;-79
2021/07/27 06:46:13;;;;;;;21.13;10.98;;;20.80;99.90;;;;;;5053611;28;20240;-79
2021/07/27 06:48:39;;;;;;;11.18;10.00;;;20.90;99.90;;;;;;5053304;28;20242;-79
2021/07/27 06:51:09;;;;;;;14.18;10.85;;;21.30;99.90;;;;;;5053605;28;20174;-79
2021/07/27 06:53:34;;;;;;;25.75;11.32;;;21.50;99.90;;;;;;5035254;28;20178;-79
2021/07/27 06:56:00;;;;;;;14.15;10.60;;;21.70;99.90;;;;;;5053299;28;20187;-79
2021/07/27 06:58:26;;;;;;;13.55;11.40;;;21.90;99.90;;;;;;5053571;28;20199;-80
2021/07/27 07:00:51;;;;;;;14.85;10.27;;;22.20;99.90;;;;;;5053109;28;20205;-79
2021/07/27 07:03:17;;;;;;;14.43;10.77;;;22.20;99.90;;;;;;5053056;28;20908;-80
2021/07/27 07:05:42;;;;;;;13.48;10.50;;;22.50;99.90;;;;;;5035108;28;20187;-79
2021/07/27 07:08:08;;;;;;;12.70;10.07;;;22.80;99.90;;;;;;5052973;28;20167;-79
2021/07/27 07:10:34;;;;;;;14.05;10.13;;;22.90;99.90;;;;;;5053810;28;20185;-79
2021/07/27 07:12:59;;;;;;;14.50;10.68;;;23.40;99.90;;;;;;5037100;28;20174;-80
2021/07/27 07:15:25;;;;;;;12.13;10.93;;;23.30;99.90;;;;;;5055346;28;20593;-79
2021/07/27 07:17:51;;;;;;;15.50;11.43;;;23.30;99.90;;;;;;5053590;28;20198;-79
2021/07/27 07:20:16;;;;;;;21.25;12.57;;;22.70;99.90;;;;;;5053055;28;20538;-80
2021/07/27 07:22:42;;;;;;;19.23;12.82;;;22.20;99.90;;;;;;5052479;28;20574;-80
2021/07/27 07:25:09;;;;;;;21.20;12.88;;;22.00;99.90;;;;;;5052949;28;20217;-79
2021/07/27 07:27:34;;;;;;;19.17;12.40;;;21.90;99.90;;;;;;5053034;28;20634;-81
2021/07/27 07:30:00;;;;;;;21.55;13.00;;;22.10;99.90;;;;;;5035083;28;20181;-80
2021/07/27 07:32:27;;;;;;;19.55;12.18;;;22.30;99.90;;;;;;5052965;28;20179;-83
2021/07/27 07:34:52;;;;;;;21.75;11.77;;;22.30;99.90;;;;;;5053450;28;20659;-85
2021/07/27 07:37:18;;;;;;;19.92;11.95;;;22.10;99.90;;;;;;5053589;28;20178;-84
2021/07/27 07:39:44;;;;;;;18.90;12.95;;;22.40;99.90;;;;;;5055675;28;20171;-94
2021/07/27 07:42:10;;;;;;;19.45;12.80;;;22.30;99.90;;;;;;5038703;28;20214;-94
2021/07/27 07:44:36;;;;;;;16.05;12.23;;;22.50;99.90;;;;;;5037981;28;20198;-93
2021/07/27 07:47:03;;;;;;;20.48;12.48;;;22.60;99.90;;;;;;5038591;28;20583;-91
2021/07/27 07:49:32;;;;;;;16.52;12.30;;;23.00;99.90;;;;;;5039191;28;20163;-96
2021/07/27 07:51:58;;;;;;;16.38;11.50;;;23.10;99.90;;;;;;5039582;28;20587;-94
2021/07/27 07:54:24;;;;;;;16.83;12.00;;;22.70;99.90;;;;;;5037649;28;20167;-91
2021/07/27 07:56:50;;;;;;;19.63;11.35;;;22.70;99.90;;;;;;5037972;28;20171;-90
2021/07/27 07:59:16;;;;;;;13.88;10.55;;;22.50;99.90;;;;;;5037765;28;20263;-91
2021/07/27 08:01:45;;;;;;;21.73;10.95;;;22.30;99.90;;;;;;5037359;28;20587;-92
2021/07/27 08:04:16;;;;;;;12.70;9.43;;;22.50;99.90;;;;;;5036964;28;20163;-92
2021/07/27 08:06:42;;;;;;;13.63;10.23;;;22.40;99.90;;;;;;5035340;28;20175;-88
2021/07/27 08:09:08;;;;;;;13.23;10.50;;;22.50;99.90;;;;;;5036793;28;20171;-92
2021/07/27 08:11:33;;;;;;;16.33;10.77;;;22.60;99.90;;;;;;5035983;28;20171;-87
2021/07/27 08:13:59;;;;;;;19.88;9.85;;;22.30;99.90;;;;;;5036863;28;20163;-86
2021/07/27 08:16:25;;;;;;;16.90;10.55;;;22.60;99.90;;;;;;5035675;28;20201;-82
2021/07/27 08:18:52;;;;;;;17.33;10.73;;;22.60;99.90;;;;;;5050647;28;20163;-83
2021/07/27 08:21:22;;;;;;;16.10;10.38;;;22.70;99.90;;;;;;5033846;28;20215;-84
2021/07/27 08:23:48;;;;;;;12.35;9.75;;;22.70;99.90;;;;;;5034140;28;20619;-85
2021/07/27 08:26:15;;;;;;;18.58;10.75;;;22.60;99.90;;;;;;5033964;28;20197;-84
2021/07/27 08:28:42;;;;;;;15.73;10.75;;;22.60;99.90;;;;;;5052011;28;20245;-83
2021/07/27 08:31:09;;;;;;;22.00;11.32;;;22.50;99.90;;;;;;5035140;28;20171;-85
2021/07/27 08:33:35;;;;;;;26.48;10.05;;;22.40;99.90;;;;;;5051788;28;20533;-85
2021/07/27 08:36:00;;;;;;;14.18;11.35;;;22.30;99.90;;;;;;5034326;28;20191;-86
2021/07/27 08:38:26;;;;;;;13.48;11.10;;;22.30;99.90;;;;;;5052279;28;20519;-84
2021/07/27 08:40:57;;;;;;;18.08;11.50;;;22.00;99.90;;;;;;5052270;28;20252;-90
2021/07/27 08:43:23;;;;;;;13.57;11.48;;;21.90;99.90;;;;;;5035960;28;20228;-90
2021/07/27 08:45:51;;;;;;;13.85;11.68;;;22.00;99.90;;;;;;5036333;28;20278;-91
2021/07/27 08:48:17;;;;;;;18.02;11.85;;;21.80;99.90;;;;;;5036075;28;20163;-94
2021/07/27 08:50:44;;;;;;;14.98;11.77;;;21.60;99.90;;;;;;5037172;28;20199;-92
2021/07/27 08:53:11;;;;;;;15.57;11.88;;;21.60;99.90;;;;;;5037636;28;20175;-86
2021/07/27 08:55:37;;;;;;;13.50;11.90;;;21.40;99.90;;;;;;5036354;28;20543;-87
2021/07/27 08:58:02;;;;;;;13.75;11.43;;;21.20;99.90;;;;;;5036247;28;20163;-87
2021/07/27 09:00:30;;;;;;;13.10;11.85;;;21.10;99.90;;;;;;5037053;28;20194;-88
2021/07/27 09:03:13;;;;;;;17.00;11.82;;;21.10;99.90;;;;;;5035982;28;20225;-86
2021/07/27 09:05:39;;;;;;;14.27;12.23;;;20.90;99.90;;;;;;5040218;28;20202;-89
2021/07/27 09:08:08;;;;;;;13.27;11.95;;;21.10;99.90;;;;;;5041021;28;20172;-86
2021/07/27 09:10:34;;;;;;;13.85;11.48;;;21.30;99.90;;;;;;5041070;28;20269;-87
2021/07/27 09:13:02;;;;;;;14.10;12.60;;;21.60;99.90;;;;;;5040533;28;20244;-84
2021/07/27 09:15:30;;;;;;;13.77;11.35;;;21.60;99.90;;;;;;5039730;28;20235;-85
2021/07/27 09:18:04;;;;;;;14.18;11.30;;;21.60;99.90;;;;;;5039202;28;20171;-87
2021/07/27 09:20:29;;;;;;;13.10;11.75;;;21.60;99.90;;;;;;5039172;28;20240;-83
2021/07/27 09:22:55;;;;;;;20.52;11.55;;;21.70;99.90;;;;;;5056045;28;20172;-83
2021/07/27 09:25:26;;;;;;;13.55;12.05;;;21.80;99.90;;;;;;5038240;28;20187;-85
2021/07/27 09:28:09;;;;;;;19.25;11.65;;;21.60;99.90;;;;;;5037900;28;20195;-84
2021/07/27 09:30:38;;;;;;;24.83;11.38;;;21.70;99.90;;;;;;5039091;28;20171;-84
2021/07/27 09:33:05;;;;;;;18.77;11.82;;;22.00;99.90;;;;;;5056575;28;20623;-84
2021/07/27 09:35:32;;;;;;;15.45;11.45;;;22.20;99.90;;;;;;5038917;28;20187;-84
2021/07/27 09:38:21;;;;;;;12.60;10.50;;;22.40;99.90;;;;;;5038353;28;20180;-85
2021/07/27 09:41:04;;;;;;;17.83;11.18;;;22.40;99.90;;;;;;5028939;28;20272;-87
2021/07/27 09:43:31;;;;;;;11.55;10.50;;;22.50;99.90;;;;;;5039200;28;20182;-85
2021/07/27 09:46:00;;;;;;;16.15;10.32;;;22.90;99.90;;;;;;5056123;28;20191;-86
2021/07/27 09:48:27;;;;;;;12.98;10.63;;;23.50;99.90;;;;;;5037629;28;20195;-85
2021/07/27 09:50:54;;;;;;;11.50;9.52;;;23.80;99.90;;;;;;5036668;28;20171;-86
2021/07/27 09:53:21;;;;;;;16.33;10.20;;;23.70;99.90;;;;;;5056437;28;20693;-86
2021/07/27 09:55:47;;;;;;;10.43;9.40;;;24.00;99.90;;;;;;5037948;28;20667;-86
2021/07/27 09:58:14;;;;;;;10.48;8.48;;;24.50;99.90;;;;;;5038031;28;20171;-86
2021/07/27 10:00:43;;;;;;;10.02;8.93;;;25.20;99.90;;;;;;5056023;28;20197;-85
2021/07/27 10:03:12;;;;;;;9.52;8.32;;;25.60;99.90;;;;;;5037801;28;20167;-86
2021/07/27 10:05:38;;;;;;;10.32;9.30;;;25.20;99.90;;;;;;5037640;28;20190;-88
2021/07/27 10:08:04;;;;;;;14.52;8.32;;;25.80;99.90;;;;;;5038176;28;20170;-86
2021/07/27 10:10:37;;;;;;;15.68;8.02;;;26.40;99.90;;;;;;5038360;28;20205;-87
2021/07/27 10:13:07;;;;;;;11.85;8.25;;;26.40;99.90;;;;;;5038014;28;20190;-85
2021/07/27 10:15:47;;;;;;;12.13;7.25;;;26.30;99.90;;;;;;5037312;28;20632;-90
2021/07/27 10:18:13;;;;;;;8.80;6.93;;;26.20;99.90;;;;;;5055666;28;20170;-84
2021/07/27 10:20:40;;;;;;;17.67;8.07;;;26.30;99.90;;;;;;5037501;28;20163;-87
2021/07/27 10:23:19;;;;;;;14.85;8.00;;;26.50;99.90;;;;;;5037181;28;20647;-85
2021/07/27 10:25:55;;;;;;;8.38;6.90;;;26.40;99.90;;;;;;5037279;28;20183;-85
2021/07/27 10:28:25;;;;;;;7.70;6.93;;;26.00;99.90;;;;;;5054411;28;20187;-83
2021/07/27 10:31:11;;;;;;;14.07;6.45;;;26.10;99.90;;;;;;5055063;28;20189;-85
2021/07/27 10:33:37;;;;;;;12.18;7.25;;;26.10;99.90;;;;;;5036765;28;20175;-85
2021/07/27 10:36:03;;;;;;;8.07;6.43;;;26.10;99.90;;;;;;5036988;28;20195;-85
2021/07/27 10:38:39;;;;;;;7.47;6.40;;;25.90;99.90;;;;;;5036508;28;20176;-84
2021/07/27 10:41:15;;;;;;;10.40;7.28;;;25.70;99.90;;;;;;5037170;28;20207;-87
2021/07/27 10:43:41;;;;;;;12.80;5.85;;;26.10;99.90;;;;;;5036950;28;20756;-84
2021/07/27 10:46:10;;;;;;;8.13;6.45;;;26.00;99.90;;;;;;5036637;28;20191;-84
2021/07/27 10:48:40;;;;;;;7.13;6.50;;;26.10;99.90;;;;;;5036461;28;20225;-87
2021/07/27 10:51:07;;;;;;;9.65;6.68;;;25.90;99.90;;;;;;5036978;28;20162;-86
2021/07/27 10:53:34;;;;;;;7.22;6.43;;;26.00;99.90;;;;;;5054658;28;20155;-84
2021/07/27 10:56:07;;;;;;;6.82;6.13;;;26.50;99.90;;;;;;5036633;28;20680;-84
2021/07/27 10:58:34;;;;;;;6.07;5.18;;;26.50;99.90;;;;;;5036618;28;20171;-83
2021/07/27 11:01:10;;;;;;;7.30;5.70;;;26.70;99.90;;;;;;5054428;28;20334;-89
2021/07/27 11:03:37;;;;;;;6.68;5.85;;;26.20;99.90;;;;;;5038044;28;20166;-89
2021/07/27 11:06:04;;;;;;;14.02;7.10;;;25.90;99.90;;;;;;5037691;28;20274;-90
2021/07/27 11:08:30;;;;;;;10.55;7.22;;;25.80;99.90;;;;;;5037928;28;20246;-89
2021/07/27 11:11:08;;;;;;;8.55;6.35;;;25.70;99.90;;;;;;5038289;28;20305;-87
2021/07/27 11:13:34;;;;;;;5.35;4.93;;;25.40;99.90;;;;;;5037877;28;20166;-88
2021/07/27 11:16:00;;;;;;;6.10;5.50;;;25.70;99.90;;;;;;5037614;28;20203;-89
2021/07/27 11:18:28;;;;;;;7.35;5.68;;;25.90;99.90;;;;;;5037105;28;20281;-89
2021/07/27 11:20:55;;;;;;;11.70;6.07;;;25.80;99.90;;;;;;5038170;28;20194;-88
2021/07/27 11:23:21;;;;;;;33.30;7.05;;;25.40;99.90;;;;;;5038205;28;20240;-90
2021/07/27 11:25:52;;;;;;;8.85;5.68;;;25.80;99.90;;;;;;5039878;28;20226;-90
2021/07/27 11:28:19;;;;;;;7.55;5.97;;;26.10;99.90;;;;;;5054781;28;20194;-88
2021/07/27 11:30:45;;;;;;;7.55;6.15;;;26.20;99.90;;;;;;5038314;28;20213;-88
2021/07/27 11:33:14;;;;;;;7.32;6.45;;;26.30;99.90;;;;;;5037380;28;20207;-89
2021/07/27 11:35:50;;;;;;;9.75;6.30;;;26.30;99.90;;;;;;5037340;28;20191;-91
2021/07/27 11:38:24;;;;;;;7.70;6.75;;;26.50;99.90;;;;;;5037113;28;20167;-88
2021/07/27 11:41:02;;;;;;;8.27;7.47;;;26.50;99.90;;;;;;5037465;28;20163;-88
2021/07/27 11:43:35;;;;;;;7.75;7.07;;;26.50;99.90;;;;;;5037606;28;20175;-90
2021/07/27 11:46:08;;;;;;;15.40;7.15;;;26.30;99.90;;;;;;5038030;28;20191;-87
2021/07/27 11:48:35;;;;;;;8.98;6.97;;;26.50;99.90;;;;;;5036647;28;20171;-87
2021/07/27 11:51:01;;;;;;;8.82;7.22;;;26.40;99.90;;;;;;5037336;28;20243;-90
2021/07/27 11:53:31;;;;;;;7.85;7.15;;;26.50;99.90;;;;;;5037585;28;20199;-89
2021/07/27 11:55:57;;;;;;;9.95;6.88;;;27.10;99.90;;;;;;5039635;28;20671;-90
2021/07/27 11:58:28;;;;;;;8.63;7.80;;;27.10;99.90;;;;;;5036850;28;20198;-90
2021/07/27 12:00:58;;;;;;;10.02;8.05;;;27.30;99.90;;;;;;5036278;28;20171;-90
2021/07/27 12:03:24;;;;;;;8.68;7.88;;;27.10;99.90;;;;;;5036432;28;20247;-89
2021/07/27 12:05:51;;;;;;;9.18;7.50;;;27.00;99.90;;;;;;5036806;28;20681;-89
2021/07/27 12:08:16;;;;;;;10.73;7.72;;;27.40;99.90;;;;;;5036642;28;20266;-88
2021/07/27 12:10:42;;;;;;;23.98;8.77;;;27.10;99.90;;;;;;5036606;28;20191;-89
2021/07/27 12:13:08;;;;;;;11.43;8.75;;;26.90;99.90;;;;;;5036802;28;20190;-89
2021/07/27 12:15:33;;;;;;;9.73;8.73;;;26.60;99.90;;;;;;5036657;28;20325;-88
2021/07/27 12:17:59;;;;;;;11.70;8.48;;;26.20;99.90;;;;;;5035205;28;20619;-82
2021/07/27 12:20:24;;;;;;;12.65;8.40;;;26.10;99.90;;;;;;5034711;28;20624;-83
2021/07/27 12:22:50;;;;;;;9.32;8.35;;;26.10;99.90;;;;;;5034643;28;20209;-84
2021/07/27 12:25:16;;;;;;;8.30;7.60;;;26.10;99.90;;;;;;5052872;28;20180;-83
2021/07/27 12:27:42;;;;;;;16.90;7.32;;;26.40;99.90;;;;;;5052265;28;20693;-83
2021/07/27 12:30:08;;;;;;;11.85;7.40;;;26.50;99.90;;;;;;5034833;28;20194;-86
2021/07/27 12:32:34;;;;;;;11.90;6.68;;;26.60;99.90;;;;;;5034981;28;20167;-83
2021/07/27 12:35:00;;;;;;;8.02;7.15;;;26.50;99.90;;;;;;5034364;28;20197;-81
2021/07/27 12:37:26;;;;;;;8.20;7.15;;;26.60;99.90;;;;;;5034109;28;20254;-83
2021/07/27 12:39:52;;;;;;;8.75;7.88;;;26.60;99.90;;;;;;5036465;28;20189;-82
2021/07/27 12:42:18;;;;;;;8.80;7.10;;;26.50;99.90;;;;;;5037798;28;20574;-82
2021/07/27 12:44:43;;;;;;;7.57;6.80;;;26.20;99.90;;;;;;5038012;28;20187;-82
2021/07/27 12:47:09;;;;;;;9.25;6.70;;;26.00;99.90;;;;;;5037937;28;20697;-82
2021/07/27 12:49:35;;;;;;;9.63;6.50;;;25.80;99.90;;;;;;5037864;28;20182;-83
2021/07/27 12:52:01;;;;;;;7.20;6.22;;;25.90;99.90;;;;;;5037842;28;20519;-82
2021/07/27 12:54:27;;;;;;;11.40;6.05;;;26.00;99.90;;;;;;5055542;28;20182;-82